Terminal Aerodrome Forecast
Issued by NWS Dallas/Fort Worth, TX

Home | Current Version | Previous Version | Text Only | Print | Product List | Glossary On
Versions: 1 2 3 4 5 6 7 8 9 10 11 12 13 14 15 16 17 18 19 20 21 22 23 24
230
FTUS44 KFWD 101457 AAB
TAFDFW
TAF AMD
KDFW 101457Z 1015/1118 19008KT P6SM SKC
     FM101700 21016KT P6SM SKC
     FM110900 24009KT P6SM SKC
     FM111500 32009KT P6SM SKC
     FM111700 36008KT P6SM SKC=

USA.gov is the U.S. government's official web portal to all federal, state and local government web resources and services.